Fascination — C6FM9 — position and weather

sailwx.info

Track history (hours):
 
Tides and Currents Weather Stations Pressure Air Temp Water Temp Dewpoint Dewpoint Depression Visibility Wind Speed Wind Dir Waves Ship Positions

Fascination

Operator: Carnival Cruise Lines

Last reported at 2016-Dec-06 00:08 UTC. Time now 2016-Dec-08 06:00 UTC.
Position N 18°01' W 064°35'.

Type: Ship. MMSI: 309682000.

Date/timePositionNaut miles runAvg speedWind from/ knotsBaromVisibWave heightAir tempDewpointWater temp
2016-Dec-06 00:08N 18°01' W 064°35'1710.8
2016-Dec-05 22:33N 18°09' W 064°50'7 0.2
2016-Dec-04 04:20N 18°10' W 064°58'7615.7
2016-Dec-03 23:30N 18°02' W 063°38'1515.4
2016-Dec-03 22:32N 18°01' W 063°23'1515.3
2016-Dec-03 21:33N 18°00' W 063°07'4 0.3
2016-Dec-03 10:22N 18°00' W 063°03'6 7.4
2016-Dec-03 09:31N 18°01' W 063°10'9 9.2
2016-Dec-03 08:32N 18°03' W 063°19'9 9.1
2016-Dec-03 07:33N 18°05' W 063°28'9 8.9
2016-Dec-03 06:31N 18°09' W 063°37'8 7.5
2016-Dec-03 05:31N 18°02' W 063°40'9 8.9
2016-Dec-03 04:32N 17°59' W 063°31'10 9.4
2016-Dec-03 03:30N 17°56' W 063°21'9 9.6
2016-Dec-03 02:32N 17°50' W 063°14'10 9.7
2016-Dec-03 01:30N 17°42' W 063°08'  
2016-Nov-28 22:32N 18°10' W 064°50'7 0.2
2016-Nov-27 04:28N 18°11' W 064°58'7815.6
2016-Nov-26 23:29N 18°02' W 063°36'1515.8
2016-Nov-26 22:33N 18°01' W 063°21'1615.1
2016-Nov-26 21:30N 18°00' W 063°04'1 1.4
2016-Nov-26 20:31N 18°01' W 063°03'0 0.0
2016-Nov-26 15:29N 18°01' W 063°03'0 0.0
2016-Nov-26 13:13N 18°01' W 063°03'0 0.0
2016-Nov-26 11:16N 18°01' W 063°03'1 1.0
2016-Nov-26 10:31N 18°00' W 063°04'6 5.9
2016-Nov-26 09:33N 18°01' W 063°10'8 7.5
2016-Nov-26 08:30N 18°02' W 063°18'8 8.8
2016-Nov-26 07:33N 18°05' W 063°26'9 8.6
2016-Nov-26 06:32N 18°07' W 063°35'7 6.7
2016-Nov-26 05:31N 18°01' W 063°39'9 9.2
2016-Nov-26 04:30N 17°59' W 063°30'10 9.5
2016-Nov-26 03:30N 17°55' W 063°21'1010.2
2016-Nov-26 02:33N 17°49' W 063°13'9 9.3
2016-Nov-26 01:32N 17°42' W 063°07'  
Track history (hours):
 
Tides and Currents Weather Stations Pressure Air Temp Water Temp Dewpoint Dewpoint Depression Visibility Wind Speed Wind Dir Waves Ship Positions

Fascination

Operator: Carnival Cruise Lines

Last reported at 2016-Dec-06 00:08 UTC. Time now 2016-Dec-08 06:00 UTC.
Position N 18°01' W 064°35'.

Type: Ship. MMSI: 309682000.

Date/timePositionNaut miles runAvg speedWind from/ knotsBaromVisibWave heightAir tempDewpointWater temp
2016-Dec-06 00:08N 18°01' W 064°35'1710.8
2016-Dec-05 22:33N 18°09' W 064°50'7 0.2
2016-Dec-04 04:20N 18°10' W 064°58'7615.7
2016-Dec-03 23:30N 18°02' W 063°38'1515.4
2016-Dec-03 22:32N 18°01' W 063°23'1515.3
2016-Dec-03 21:33N 18°00' W 063°07'4 0.3
2016-Dec-03 10:22N 18°00' W 063°03'6 7.4
2016-Dec-03 09:31N 18°01' W 063°10'9 9.2
2016-Dec-03 08:32N 18°03' W 063°19'9 9.1
2016-Dec-03 07:33N 18°05' W 063°28'9 8.9
2016-Dec-03 06:31N 18°09' W 063°37'8 7.5
2016-Dec-03 05:31N 18°02' W 063°40'9 8.9
2016-Dec-03 04:32N 17°59' W 063°31'10 9.4
2016-Dec-03 03:30N 17°56' W 063°21'9 9.6
2016-Dec-03 02:32N 17°50' W 063°14'10 9.7
2016-Dec-03 01:30N 17°42' W 063°08'  
2016-Nov-28 22:32N 18°10' W 064°50'7 0.2
2016-Nov-27 04:28N 18°11' W 064°58'7815.6
2016-Nov-26 23:29N 18°02' W 063°36'1515.8
2016-Nov-26 22:33N 18°01' W 063°21'1615.1
2016-Nov-26 21:30N 18°00' W 063°04'1 1.4
2016-Nov-26 20:31N 18°01' W 063°03'0 0.0
2016-Nov-26 15:29N 18°01' W 063°03'0 0.0
2016-Nov-26 13:13N 18°01' W 063°03'0 0.0
2016-Nov-26 11:16N 18°01' W 063°03'1 1.0
2016-Nov-26 10:31N 18°00' W 063°04'6 5.9
2016-Nov-26 09:33N 18°01' W 063°10'8 7.5
2016-Nov-26 08:30N 18°02' W 063°18'8 8.8
2016-Nov-26 07:33N 18°05' W 063°26'9 8.6
2016-Nov-26 06:32N 18°07' W 063°35'7 6.7
2016-Nov-26 05:31N 18°01' W 063°39'9 9.2
2016-Nov-26 04:30N 17°59' W 063°30'10 9.5
2016-Nov-26 03:30N 17°55' W 063°21'1010.2
2016-Nov-26 02:33N 17°49' W 063°13'9 9.3
2016-Nov-26 01:32N 17°42' W 063°07'  

Dump ship's entire track history